To NAV CANADA Home Page Login to a new session Search on AWWS site Feedback and Comments Disclaimer Vers la page française équivalente Tips FAQ What's new on the site To the Forecasts and Observations / NOTAM section To "File a Flight Plan" website Publications and other links Update of the User's profile FIC Telephone Numbers My Weather Data Folder Route Weather Data Regional Weather Data Local Weather Data To the Forecasts and Observations / NOTAM section
Request Generated 03/31/2015 at 16:46:54 UTC . Weather information available at that time is displayed.

METAR/TAF

LA RONGE/LA RONGE (BARBER FIELD)/SK    

METAR CYVC 311600Z 14008KT 15SM FEW090 BKN250 01/M03 A2978 RMK AC1CI5
SLP105=
METAR CYVC 311500Z 14009KT 15SM BKN090 M00/M03 A2980 RMK AC6 SLP110=
METAR CYVC 311400Z 14007KT 15SM BKN070 M01/M04 A2982 RMK AC7 SLP117=

TAF CYVC 311238Z 3113/0101 VRB03KT P6SM SCT050 BKN100
BECMG 3114/3116 14008KT
FM311700 14008KT P6SM SCT025 OVC050 TEMPO 3117/0101 P6SM -RA
OVC025
RMK NXT FCST BY 311900Z=
Your time UTC time
Weather data provided by Environment Canada and NAV CANADA